createdAt,value
2022-08-12T00:02:04.076Z,154299.44
2022-08-12T00:04:50.863Z,154312.38
2022-08-12T00:07:36.324Z,154295.53
2022-08-12T00:10:22.043Z,154298.13
2022-08-12T00:13:08.634Z,154260.63
2022-08-12T00:15:54.415Z,154276.16
2022-08-12T00:18:39.132Z,154245.09
2022-08-12T00:21:24.409Z,154250.22
2022-08-12T00:24:12.077Z,154273.56
2022-08-12T00:26:59.964Z,154258.03
2022-08-12T00:29:48.132Z,154272.25
2022-08-12T00:32:36.229Z,154256.72
2022-08-12T00:35:23.576Z,154251.53
2022-08-12T00:38:14.993Z,154185.53
2022-08-12T00:41:02.345Z,154176.50
2022-08-12T00:43:30.193Z,154195.88
2022-08-12T00:46:31.138Z,154189.44
2022-08-12T00:49:01.601Z,154193.34
2022-08-12T00:51:52.897Z,154207.56
2022-08-12T00:54:20.456Z,154177.81
2022-08-12T00:56:49.920Z,154172.59
2022-08-12T00:59:17.945Z,154151.94
2022-08-12T01:02:02.422Z,154170.00
2022-08-12T01:04:57.717Z,154155.78
2022-08-12T01:07:45.172Z,154217.91
2022-08-12T01:10:32.638Z,154150.63
2022-08-12T01:13:07.537Z,154133.75
2022-08-12T01:15:50.233Z,154124.72
2022-08-12T01:18:20.974Z,154093.66
2022-08-12T01:21:12.793Z,154048.38
2022-08-12T01:24:30.897Z,154021.22
2022-08-12T01:26:54.689Z,154047.06
2022-08-12T01:29:26.721Z,154012.19
2022-08-12T01:31:59.060Z,154041.94
2022-08-12T01:34:36.179Z,154082.03
2022-08-12T01:37:07.179Z,154053.56
2022-08-12T01:39:38.720Z,154001.84
2022-08-12T01:42:32.472Z,153996.66
2022-08-12T01:45:00.756Z,153963.06
2022-08-12T01:47:43.056Z,153943.63
2022-08-12T01:50:21.761Z,153814.34
2022-08-12T01:53:05.447Z,153911.34
2022-08-12T01:55:37.118Z,153900.97
2022-08-12T01:58:19.465Z,153893.22
2022-08-12T02:00:59.210Z,153916.50
2022-08-12T02:04:05.767Z,153939.75
2022-08-12T02:07:00.665Z,154000.53
2022-08-12T02:10:03.626Z,153943.63
2022-08-12T02:12:48.495Z,153934.59
2022-08-12T02:15:27.856Z,153912.59
2022-08-12T02:18:12.660Z,153898.38
2022-08-12T02:20:51.507Z,153899.66
2022-08-12T02:23:26.479Z,153845.34
2022-08-12T02:25:59.264Z,153805.25
2022-08-12T02:28:27.315Z,153707.09
2022-08-12T02:30:57.452Z,153756.16
2022-08-12T02:33:25.456Z,153783.31
2022-08-12T02:35:53.456Z,153779.41
2022-08-12T02:38:22.569Z,153802.72
2022-08-12T02:40:54.550Z,153751.00
2022-08-12T02:43:28.064Z,153763.91
2022-08-12T02:46:01.265Z,153761.38
2022-08-12T02:48:31.576Z,153717.41
2022-08-12T02:51:04.835Z,153678.66
2022-08-12T02:53:34.272Z,153707.09
2022-08-12T02:56:03.659Z,153717.41
2022-08-12T02:58:33.242Z,153734.22
2022-08-12T03:01:05.873Z,153735.53
2022-08-12T03:03:35.444Z,153730.34
2022-08-12T03:06:07.028Z,153698.00
2022-08-12T03:08:43.372Z,153691.59
2022-08-12T03:11:17.767Z,153712.22
2022-08-12T03:13:51.965Z,153727.75
2022-08-12T03:16:21.084Z,153828.56
2022-08-12T03:18:50.320Z,153849.22
2022-08-12T03:21:53.021Z,153833.72
2022-08-12T03:24:09.149Z,153810.44
2022-08-12T03:26:37.772Z,153820.78
2022-08-12T03:29:07.214Z,153766.50
2022-08-12T03:31:35.991Z,153739.38
2022-08-12T03:34:07.065Z,153710.94
2022-08-12T03:36:36.640Z,153707.09
2022-08-12T03:39:38.050Z,153720.00
2022-08-12T03:42:14.321Z,153690.28
2022-08-12T03:45:11.341Z,153678.66
2022-08-12T03:48:02.459Z,153691.59
2022-08-12T03:50:49.367Z,153634.72
2022-08-12T03:53:40.848Z,153645.03
2022-08-12T03:56:25.496Z,153660.56
2022-08-12T03:59:13.238Z,153657.97
2022-08-12T04:01:41.369Z,153673.47
2022-08-12T04:04:10.813Z,153678.66
2022-08-12T04:06:44.854Z,153642.47
2022-08-12T04:09:15.586Z,153652.81
2022-08-12T04:12:03.762Z,153623.09
2022-08-12T04:14:32.754Z,153561.03
2022-08-12T04:17:00.742Z,153590.78
2022-08-12T04:19:29.664Z,153621.81
2022-08-12T04:22:02.135Z,153601.16
2022-08-12T04:24:34.589Z,153647.66
2022-08-12T04:27:02.928Z,153652.81
2022-08-12T04:30:17.149Z,153634.72
2022-08-12T04:32:17.902Z,153657.97
2022-08-12T04:34:46.770Z,153685.09
2022-08-12T04:37:15.940Z,153729.03
2022-08-12T04:39:44.935Z,153720.00
2022-08-12T04:42:13.068Z,153701.91
2022-08-12T04:44:42.151Z,153760.06
2022-08-12T04:47:12.421Z,153787.19
2022-08-12T04:49:41.090Z,153800.13
2022-08-12T04:52:10.900Z,153859.56
2022-08-12T04:54:38.656Z,153836.28
2022-08-12T04:57:09.447Z,153872.53
2022-08-12T04:59:46.918Z,153885.44
2022-08-12T05:02:21.241Z,153955.25
2022-08-12T05:04:50.761Z,153948.84
2022-08-12T05:07:19.540Z,154001.84
2022-08-12T05:10:00.853Z,154017.38
2022-08-12T05:12:36.318Z,154045.81
2022-08-12T05:15:19.500Z,154091.06
2022-08-12T05:17:52.452Z,154113.06
2022-08-12T05:20:20.971Z,154168.72
2022-08-12T05:22:50.029Z,154208.88
2022-08-12T05:25:22.284Z,154226.94
2022-08-12T05:27:55.213Z,154260.63
2022-08-12T05:30:26.360Z,154308.47
2022-08-12T05:32:55.529Z,154334.34
2022-08-12T05:35:23.273Z,154327.91
2022-08-12T05:38:13.584Z,154374.50
2022-08-12T05:40:41.786Z,154361.53
2022-08-12T05:43:09.277Z,154384.88
2022-08-12T05:45:39.349Z,154449.66
2022-08-12T05:48:10.379Z,154487.19
2022-08-12T05:50:37.959Z,154510.47
2022-08-12T05:53:06.949Z,154506.63
2022-08-12T05:55:34.797Z,154478.16
2022-08-12T05:58:02.904Z,154527.34
2022-08-12T06:00:31.452Z,154560.97
2022-08-12T06:03:01.590Z,154541.59
2022-08-12T06:05:29.571Z,154541.59
2022-08-12T06:08:02.198Z,154607.63
2022-08-12T06:10:32.927Z,154625.78
2022-08-12T06:13:02.419Z,154664.69
2022-08-12T06:15:30.748Z,154693.19
2022-08-12T06:18:05.290Z,154729.47
2022-08-12T06:20:41.962Z,154752.78
2022-08-12T06:23:11.772Z,154768.34
2022-08-12T06:25:42.048Z,154693.19
2022-08-12T06:28:17.175Z,154706.16
2022-08-12T06:30:57.265Z,154739.81
2022-08-12T06:33:55.949Z,154804.59
2022-08-12T06:36:23.206Z,154881.16
2022-08-12T06:38:51.326Z,154951.19
2022-08-12T06:41:38.156Z,155027.66
2022-08-12T06:44:08.044Z,155032.88
2022-08-12T06:46:38.884Z,155017.31
2022-08-12T06:49:06.746Z,155078.22
2022-08-12T06:51:34.243Z,155063.97
2022-08-12T06:54:02.046Z,155044.53
2022-08-12T06:57:00.164Z,155041.94
2022-08-12T06:59:21.174Z,154949.88
2022-08-12T07:01:50.855Z,154933.00
2022-08-12T07:04:36.920Z,154931.72
2022-08-12T07:07:06.915Z,154949.88
2022-08-12T07:10:04.269Z,154960.22
2022-08-12T07:12:27.031Z,154968.00
2022-08-12T07:14:55.851Z,155001.72
2022-08-12T07:17:23.286Z,154947.28
2022-08-12T07:19:51.853Z,154957.63
2022-08-12T07:22:19.845Z,154988.75
2022-08-12T07:25:07.393Z,155027.66
2022-08-12T07:27:40.568Z,155076.94
2022-08-12T07:30:09.836Z,155110.72
2022-08-12T07:32:37.582Z,155160.00
2022-08-12T07:35:06.031Z,155105.50
2022-08-12T07:37:34.922Z,155154.84
2022-08-12T07:40:02.521Z,155209.34
2022-08-12T07:42:30.877Z,155263.81
2022-08-12T07:44:59.757Z,155314.47
2022-08-12T07:47:27.656Z,155378.06
2022-08-12T07:50:03.235Z,155445.56
2022-08-12T07:52:33.679Z,155401.41
2022-08-12T07:55:01.474Z,155426.13
2022-08-12T07:57:28.950Z,155540.41
2022-08-12T07:59:56.500Z,155645.59
2022-08-12T08:02:26.496Z,155684.59
2022-08-12T08:04:57.470Z,155792.50
2022-08-12T08:07:27.340Z,155696.28
2022-08-12T08:09:59.316Z,155669.00
2022-08-12T08:12:45.400Z,155822.34
2022-08-12T08:15:14.865Z,155835.38
2022-08-12T08:17:56.486Z,155762.59
2022-08-12T08:20:28.644Z,155739.22
2022-08-12T08:22:58.040Z,155734.00
2022-08-12T08:25:36.744Z,155804.16
2022-08-12T08:28:07.205Z,155921.19
2022-08-12T08:30:38.170Z,156046.00
2022-08-12T08:33:23.580Z,155945.88
2022-08-12T08:35:58.254Z,156064.22
2022-08-12T08:38:32.422Z,156169.59
2022-08-12T08:42:16.727Z,156193.00
2022-08-12T08:44:10.697Z,156258.03
2022-08-12T08:46:38.490Z,156127.97
2022-08-12T08:49:07.676Z,156228.13
2022-08-12T08:51:35.578Z,156353.06
2022-08-12T08:54:03.602Z,156459.88
2022-08-12T08:56:31.062Z,156579.63
2022-08-12T08:58:59.201Z,156623.94
2022-08-12T09:01:26.796Z,156614.81
2022-08-12T09:05:13.859Z,156586.09
2022-08-12T09:06:58.497Z,156557.47
2022-08-12T09:09:34.152Z,156639.53
2022-08-12T09:12:32.175Z,156782.88
2022-08-12T09:15:00.199Z,156931.41
2022-08-12T09:17:27.650Z,156819.34
2022-08-12T09:20:16.324Z,156915.75
2022-08-12T09:22:49.162Z,156663.00
2022-08-12T09:25:25.225Z,156777.66
2022-08-12T09:28:18.168Z,156897.50
2022-08-12T09:30:44.200Z,156871.44
2022-08-12T09:33:18.979Z,156970.53
2022-08-12T09:36:04.895Z,156772.41
2022-08-12T09:38:33.748Z,156773.72
2022-08-12T09:42:34.330Z,156689.06
2022-08-12T09:44:38.392Z,156673.41
2022-08-12T09:46:56.216Z,156626.50
2022-08-12T09:49:25.064Z,156643.47
2022-08-12T09:51:55.151Z,156653.88
2022-08-12T09:54:32.992Z,156780.25
2022-08-12T09:58:07.287Z,157005.72
2022-08-12T10:00:16.369Z,156848.00
2022-08-12T10:03:00.118Z,156824.56
2022-08-12T10:06:19.462Z,156870.13
2022-08-12T10:08:23.469Z,156756.78
2022-08-12T10:11:09.782Z,156840.22
2022-08-12T10:13:50.124Z,156705.94
2022-08-12T10:16:22.686Z,156690.38
2022-08-12T10:18:53.487Z,156805.00
2022-08-12T10:21:23.716Z,156635.66
2022-08-12T10:23:55.094Z,156584.81
2022-08-12T10:26:42.514Z,156587.41
2022-08-12T10:30:03.431Z,156506.69
2022-08-12T10:32:43.800Z,156449.41
2022-08-12T10:35:14.392Z,156532.72
2022-08-12T10:38:33.379Z,156540.56
2022-08-12T10:40:33.377Z,156776.34
2022-08-12T10:43:24.198Z,157033.06
2022-08-12T10:45:58.292Z,156849.31
2022-08-12T10:48:33.397Z,156781.56
2022-08-12T10:51:51.570Z,156673.41
2022-08-12T10:53:52.716Z,156724.19
2022-08-12T10:56:22.204Z,156702.06
2022-08-12T10:58:50.467Z,156764.56
2022-08-12T11:01:50.566Z,156884.47
2022-08-12T11:04:19.134Z,156853.22
2022-08-12T11:07:05.822Z,157035.69
2022-08-12T11:10:00.574Z,156975.78
2022-08-12T11:12:54.931Z,157014.88
2022-08-12T11:15:33.402Z,156949.72
2022-08-12T11:18:11.810Z,156883.16
2022-08-12T11:20:40.224Z,157017.47
2022-08-12T11:23:35.896Z,157059.19
2022-08-12T11:26:00.494Z,156965.31
2022-08-12T11:28:37.401Z,157038.31
2022-08-12T11:31:12.184Z,156991.41
2022-08-12T11:34:06.044Z,156982.25
2022-08-12T11:36:30.600Z,156907.97
2022-08-12T11:38:58.336Z,156879.28
2022-08-12T11:41:32.048Z,157007.00
2022-08-12T11:44:29.185Z,156964.06
2022-08-12T11:46:51.319Z,157033.06
2022-08-12T11:49:20.482Z,157207.84
2022-08-12T11:51:59.462Z,157275.72
2022-08-12T11:54:29.489Z,157089.13
2022-08-12T11:56:59.349Z,157192.22
2022-08-12T12:02:20.196Z,157179.16
2022-08-12T12:04:52.106Z,157330.50
2022-08-12T12:07:19.858Z,157262.69
2022-08-12T12:09:53.105Z,157001.84
2022-08-12T12:12:21.570Z,156793.28
2022-08-12T12:14:54.734Z,156803.69
2022-08-12T12:17:23.319Z,156901.41
2022-08-12T12:19:50.777Z,157030.50
2022-08-12T12:22:23.543Z,156935.31
2022-08-12T12:24:55.091Z,157043.53
2022-08-12T12:27:39.267Z,157037.00
2022-08-12T12:30:17.491Z,156960.13
2022-08-12T12:32:53.358Z,156794.59
2022-08-12T12:36:05.762Z,156732.03
2022-08-12T12:38:12.341Z,156789.38
2022-08-12T12:40:41.731Z,156952.28
2022-08-12T12:43:12.013Z,156934.00
2022-08-12T12:45:44.587Z,157004.44
2022-08-12T12:48:15.363Z,157137.44
2022-08-12T12:50:45.664Z,157017.47
2022-08-12T12:54:06.228Z,157025.28
2022-08-12T12:56:15.844Z,157076.09
2022-08-12T12:58:43.897Z,157121.78
2022-08-12T13:01:25.630Z,157042.25
2022-08-12T13:04:02.006Z,157129.59
2022-08-12T13:06:31.985Z,157086.56
2022-08-12T13:09:02.686Z,156973.16
2022-08-12T13:11:32.737Z,157005.72
2022-08-12T13:14:28.314Z,157100.91
2022-08-12T13:17:02.614Z,157153.09
2022-08-12T13:19:38.938Z,157186.97
2022-08-12T13:22:19.902Z,157180.47
2022-08-12T13:24:54.759Z,157188.28
2022-08-12T13:27:35.329Z,157218.28
2022-08-12T13:30:06.960Z,157226.09
2022-08-12T13:32:42.043Z,157120.50
2022-08-12T13:35:19.413Z,157103.53
2022-08-12T13:37:54.454Z,157175.25
2022-08-12T13:43:40.223Z,157215.66
2022-08-12T13:46:11.826Z,157196.13
2022-08-12T13:48:45.330Z,157267.88
2022-08-12T13:51:13.374Z,157321.34
2022-08-12T13:53:57.633Z,157320.03
2022-08-12T13:56:34.919Z,157279.59
2022-08-12T13:59:03.361Z,157351.34
2022-08-12T14:01:31.926Z,157320.03
2022-08-12T14:04:04.246Z,157223.47
2022-08-12T14:06:33.894Z,157085.25
2022-08-12T14:09:15.363Z,157039.63
2022-08-12T14:11:47.935Z,157085.25
2022-08-12T14:14:26.777Z,157136.13
2022-08-12T14:16:54.487Z,157150.47
2022-08-12T14:19:27.156Z,157156.97
2022-08-12T14:22:04.988Z,157185.66
2022-08-12T14:24:35.406Z,157181.78
2022-08-12T14:27:03.885Z,157226.09
2022-08-12T14:30:04.412Z,157226.09
2022-08-12T14:32:26.173Z,157189.59
2022-08-12T14:34:56.505Z,157194.81
2022-08-12T14:37:57.114Z,157123.09
2022-08-12T14:40:18.177Z,157073.47
2022-08-12T14:42:47.052Z,157078.72
2022-08-12T14:45:14.750Z,157022.66
2022-08-12T14:47:50.066Z,157060.44
2022-08-12T14:50:57.632Z,157129.59
2022-08-12T14:58:59.953Z,157184.34
2022-08-12T15:01:41.402Z,157194.81
2022-08-12T15:04:11.613Z,157170.00
2022-08-12T15:06:52.364Z,157128.28
2022-08-12T15:09:28.977Z,157166.13
2022-08-12T15:12:03.782Z,157145.25
2022-08-12T15:14:31.799Z,157121.78
2022-08-12T15:17:00.337Z,157125.72
2022-08-12T15:20:31.921Z,157115.25
2022-08-12T15:22:37.940Z,157134.81
2022-08-12T15:25:07.661Z,157114.00
2022-08-12T15:28:04.631Z,157140.06
2022-08-12T15:30:31.198Z,157172.63
2022-08-12T15:32:59.267Z,157155.66
2022-08-12T15:35:31.290Z,157151.78
2022-08-12T15:38:11.982Z,157181.78
2022-08-12T15:40:46.719Z,157216.97
2022-08-12T15:43:51.433Z,157166.13
2022-08-12T15:46:03.159Z,157117.88
2022-08-12T15:48:32.813Z,157085.25
2022-08-12T15:51:01.897Z,157034.38
2022-08-12T15:53:51.268Z,157012.25
2022-08-12T15:56:22.128Z,156991.41
2022-08-12T15:58:59.128Z,156996.59
2022-08-12T16:01:35.085Z,156999.22
2022-08-12T16:04:02.768Z,157007.00
2022-08-12T16:09:56.712Z,157059.19
2022-08-12T16:12:12.245Z,157046.16
2022-08-12T16:14:42.126Z,157035.69
2022-08-12T16:17:14.782Z,157044.84
2022-08-12T16:20:02.607Z,157056.56
2022-08-12T16:22:30.732Z,157020.03
2022-08-12T16:25:01.035Z,157022.66
2022-08-12T16:27:31.494Z,157023.97
2022-08-12T16:30:07.267Z,156986.19
2022-08-12T16:32:36.721Z,156986.19
2022-08-12T16:35:08.244Z,156986.19
2022-08-12T16:38:24.540Z,156991.41
2022-08-12T16:40:33.554Z,156960.13
2022-08-12T16:43:13.105Z,156970.53
2022-08-12T16:46:05.626Z,156937.94
2022-08-12T16:48:35.681Z,156967.91
2022-08-12T16:51:05.784Z,156960.13
2022-08-12T16:53:43.707Z,156979.66
2022-08-12T16:56:17.319Z,156954.88
2022-08-12T16:58:47.927Z,156941.88
2022-08-12T17:01:16.267Z,156953.59
2022-08-12T17:03:44.771Z,156922.28
2022-08-12T17:06:22.694Z,156921.00
2022-08-12T17:09:02.292Z,156923.59
2022-08-12T17:11:31.977Z,156893.63
2022-08-12T17:14:01.955Z,156876.66
2022-08-12T17:16:30.077Z,156889.69
2022-08-12T17:18:59.719Z,156879.28
2022-08-12T17:21:40.744Z,156853.22
2022-08-12T17:24:22.425Z,156850.63
2022-08-12T17:26:59.090Z,156825.88
2022-08-12T17:30:01.060Z,156803.69
2022-08-12T17:32:15.293Z,156795.91
2022-08-12T17:35:00.804Z,156784.19
2022-08-12T17:37:28.348Z,156778.97
2022-08-12T17:40:10.782Z,156767.19
2022-08-12T17:42:47.610Z,156782.88
2022-08-12T17:45:19.276Z,156752.84
2022-08-12T17:48:01.295Z,156715.09
2022-08-12T17:50:32.210Z,156713.78
2022-08-12T17:53:02.468Z,156707.25
2022-08-12T17:55:43.663Z,156689.06
2022-08-12T17:58:14.450Z,156657.78
2022-08-12T18:00:45.091Z,156600.44
2022-08-12T18:04:04.843Z,156597.81
2022-08-12T18:06:08.566Z,156500.22
2022-08-12T18:08:43.214Z,156465.03
2022-08-12T18:12:06.247Z,156506.69
2022-08-12T18:14:28.724Z,156397.31
2022-08-12T18:17:00.724Z,156397.31
2022-08-12T18:19:28.645Z,156329.66
2022-08-12T18:22:17.388Z,156302.31
2022-08-12T18:24:45.727Z,156277.59
2022-08-12T18:27:30.146Z,156248.94
2022-08-12T18:30:04.579Z,156216.38
2022-08-12T18:32:58.361Z,156194.28
2022-08-12T18:35:22.745Z,156222.91
2022-08-12T18:37:59.338Z,156221.63
2022-08-12T18:40:44.471Z,156265.91
2022-08-12T18:43:15.271Z,156146.19
2022-08-12T18:45:57.005Z,156103.28
2022-08-12T18:48:25.663Z,156088.97
2022-08-12T18:51:05.943Z,156074.59
2022-08-12T18:54:05.074Z,156068.06
2022-08-12T18:56:32.738Z,156022.59
2022-08-12T18:59:03.364Z,155986.16
2022-08-12T19:02:19.289Z,155973.16
2022-08-12T19:04:21.833Z,155981.00
2022-08-12T19:06:51.373Z,155936.78
2022-08-12T19:09:19.480Z,155913.41
2022-08-12T19:12:06.668Z,155897.78
2022-08-12T19:14:38.115Z,155874.38
2022-08-12T19:17:11.493Z,155828.84
2022-08-12T19:19:41.800Z,155824.94
2022-08-12T19:22:09.587Z,155765.19
2022-08-12T19:24:54.730Z,155747.00
2022-08-12T19:27:22.835Z,155726.22
2022-08-12T19:30:06.604Z,155689.75
2022-08-12T19:32:38.687Z,155708.03
2022-08-12T19:35:53.936Z,155672.88
2022-08-12T19:38:03.500Z,155662.50
2022-08-12T19:40:37.357Z,155623.53
2022-08-12T19:43:17.262Z,155606.63
2022-08-12T19:45:50.403Z,155596.25
2022-08-12T19:48:20.976Z,155565.06
2022-08-12T19:50:52.351Z,155540.41
2022-08-12T19:53:22.668Z,155514.44
2022-08-12T19:55:52.638Z,155487.13
2022-08-12T19:58:22.100Z,155466.38
2022-08-12T20:00:53.239Z,155409.22
2022-08-12T20:03:38.172Z,155429.97
2022-08-12T20:06:14.068Z,155410.53
2022-08-12T20:08:49.245Z,155417.00
2022-08-12T20:12:12.454Z,155393.66
2022-08-12T20:14:14.032Z,155380.66
2022-08-12T20:16:52.831Z,155339.13
2022-08-12T20:19:53.076Z,155314.47
2022-08-12T20:22:24.650Z,155322.25
2022-08-12T20:25:01.240Z,155307.97
2022-08-12T20:28:02.974Z,155294.94
2022-08-12T20:30:20.149Z,155271.59
2022-08-12T20:32:55.332Z,155223.59
2022-08-12T20:36:05.899Z,155233.97
2022-08-12T20:38:26.533Z,155213.19
2022-08-12T20:40:55.184Z,155214.50
2022-08-12T20:43:23.978Z,155202.81
2022-08-12T20:45:57.339Z,155193.75
2022-08-12T20:48:28.763Z,155204.13
2022-08-12T20:51:04.275Z,155204.13
2022-08-12T20:53:57.841Z,155170.41
2022-08-12T20:56:30.530Z,155123.69
2022-08-12T20:59:01.052Z,155102.91
2022-08-12T21:01:47.148Z,155105.50
2022-08-12T21:04:34.887Z,155084.75
2022-08-12T21:07:09.383Z,155092.56
2022-08-12T21:09:41.557Z,155067.88
2022-08-12T21:12:24.736Z,155051.00
2022-08-12T21:15:01.447Z,155045.84
2022-08-12T21:18:01.044Z,155031.56
2022-08-12T21:20:34.414Z,155034.16
2022-08-12T21:23:05.841Z,155001.72
2022-08-12T21:25:35.799Z,155012.09
2022-08-12T21:28:12.595Z,154993.97
2022-08-12T21:31:11.722Z,154988.75
2022-08-12T21:33:31.111Z,154944.66
2022-08-12T21:36:00.907Z,154940.78
2022-08-12T21:38:40.257Z,154936.91
2022-08-12T21:41:09.311Z,154903.19
2022-08-12T21:43:45.130Z,154875.97
2022-08-12T21:46:35.075Z,154870.81
2022-08-12T21:49:05.419Z,154885.06
2022-08-12T21:51:49.982Z,154874.66
2022-08-12T21:54:22.060Z,154874.66
2022-08-12T21:56:53.665Z,154866.84
2022-08-12T21:59:21.698Z,154852.59
2022-08-12T22:01:50.007Z,154825.38
2022-08-12T22:04:37.639Z,154776.13
2022-08-12T22:07:06.220Z,154792.94
2022-08-12T22:09:43.197Z,154780.00
2022-08-12T22:12:28.540Z,154777.44
2022-08-12T22:14:55.947Z,154785.19
2022-08-12T22:17:33.912Z,154773.53
2022-08-12T22:20:21.864Z,154755.38
2022-08-12T22:22:56.048Z,154752.78
2022-08-12T22:25:28.560Z,154778.69
2022-08-12T22:28:14.542Z,154735.97
2022-08-12T22:31:00.900Z,154729.47
2022-08-12T22:33:28.418Z,154702.25
2022-08-12T22:35:59.824Z,154672.44
2022-08-12T22:38:29.661Z,154675.03
2022-08-12T22:41:00.959Z,154651.75
2022-08-12T22:43:59.032Z,154656.91
2022-08-12T22:46:52.022Z,154633.53
2022-08-12T22:49:22.736Z,154625.78
2022-08-12T22:52:06.554Z,154646.53
2022-08-12T22:54:37.645Z,154649.13
2022-08-12T22:57:15.812Z,154643.94
2022-08-12T22:59:55.886Z,154641.38
2022-08-12T23:02:29.034Z,154646.53
2022-08-12T23:04:57.717Z,154589.47
2022-08-12T23:07:25.206Z,154601.19
2022-08-12T23:09:54.745Z,154606.34
2022-08-12T23:12:46.426Z,154576.53
2022-08-12T23:15:14.849Z,154572.69
2022-08-12T23:17:42.612Z,154571.38
2022-08-12T23:20:11.570Z,154566.19
2022-08-12T23:22:40.215Z,154546.78
2022-08-12T23:25:19.041Z,154542.88
2022-08-12T23:28:30.190Z,154524.72
2022-08-12T23:30:58.600Z,154529.94
2022-08-12T23:34:00.797Z,154483.28
2022-08-12T23:36:39.798Z,154483.28
2022-08-12T23:40:14.524Z,154408.22
2022-08-12T23:42:17.700Z,154438.00
2022-08-12T23:44:48.666Z,154397.88
2022-08-12T23:47:20.786Z,154392.63
2022-08-12T23:49:57.025Z,154412.06
2022-08-12T23:52:33.888Z,154447.06
2022-08-12T23:55:23.966Z,154444.44
2022-08-12T23:58:17.043Z,154453.50
